ěÝzenÝ letovÚho provozu ╚eskÚ republiky
Letiste: LKNA Aktualizace: 26.09.2022 15:59:32  UTC
 METAR LKNA 26.09. 16:00 ...
METAR LKNA 261600Z 33005KT 310V010 9999 FEW042 14/09 Q1005 NOSIG RMK BLU BLU=
 TAF LKNA 26.09. 11:00 ...
TAF LKNA 261100Z 2612/2712 27010KT 9999 SCT035      PROB40 TEMPO 2612/2615 6000 SHRA BKN021      BECMG 2616/2618 CAVOK      BECMG 2700/2702 14004KT 5000 BR BKN012      TEMPO 2703/2712 0500 FG VV002=